Time;durP1;ratioP1;P1;durP2;ratioP2;P2;SDS_P1;SDS_P2;PMS_P1;PMS_P2;Temp;Humidity;BMP_temperature;BMP_pressure;BME280_temperature;BME280_humidity;BME280_pressure;Samples;Min_cycle;Max_cycle;Signal;HPM_P1;HPM_P2
2021/09/05 06:11:55;;;;;;;10.60;5.75;;;;;;;19.64;100.00;101399.72;6228548;22;20084;31
2021/09/05 06:14:41;;;;;;;8.75;5.47;;;;;;;19.50;100.00;101401.25;6218707;23;20058;-72
2021/09/05 06:17:27;;;;;;;8.65;5.45;;;;;;;19.83;100.00;101400.66;6249380;23;20102;-72
2021/09/05 06:20:13;;;;;;;11.05;5.68;;;;;;;19.92;100.00;101405.56;6248681;23;20023;-72
2021/09/05 06:22:59;;;;;;;7.57;5.00;;;;;;;20.33;100.00;101406.38;6248830;23;20004;-72
2021/09/05 06:25:45;;;;;;;8.40;5.07;;;;;;;20.57;100.00;101400.75;6247029;23;20004;-73
2021/09/05 06:28:31;;;;;;;8.48;5.45;;;;;;;20.26;100.00;101418.22;6248416;23;20008;-72
2021/09/05 06:31:17;;;;;;;9.55;5.82;;;;;;;20.04;100.00;101412.97;6248747;22;20094;-72
2021/09/05 12:28:08;;;;;;;7.65;6.30;;;;;;;28.58;40.24;101397.59;6309278;22;20102;-73
2021/09/05 12:31:06;;;;;;;10.65;5.63;;;;;;;28.12;40.74;101396.84;6307614;22;20025;-73
2021/09/05 12:33:52;;;;;;;41.33;33.17;;;;;;;28.72;40.39;101397.31;6308042;22;20275;-73
2021/09/05 12:36:38;;;;;;;8.05;5.78;;;;;;;28.50;40.27;101388.41;6286965;22;20010;-73
2021/09/05 12:39:24;;;;;;;9.48;5.38;;;;;;;29.52;39.00;101385.97;6275755;22;20008;-73
2021/09/05 12:42:11;;;;;;;9.10;4.65;;;;;;;29.33;37.27;101385.84;6276834;22;20019;-73
2021/09/05 12:44:58;;;;;;;7.72;4.95;;;;;;;28.84;37.36;101380.09;6256006;22;20020;-73
2021/09/05 14:20:24;;;;;;;9.95;6.75;;;;;;;27.95;43.64;101400.00;6270896;22;20027;-72
2021/09/05 14:23:10;;;;;;;9.50;6.43;;;;;;;28.00;43.67;101400.50;6340386;22;20026;-72
2021/09/05 14:25:56;;;;;;;10.45;6.88;;;;;;;27.80;43.91;101401.16;6341313;22;20410;-72
2021/09/05 14:28:47;;;;;;;10.40;6.47;;;;;;;27.36;44.50;101409.13;6342520;22;20014;-72
2021/09/05 14:31:48;;;;;;;12.63;6.63;;;;;;;27.06;42.39;101406.03;6341299;22;20083;-73
2021/09/05 16:43:07;;;;;;;16.80;8.05;;;;;;;24.50;55.38;101475.81;6307306;22;20043;-73
2021/09/05 16:45:55;;;;;;;12.35;7.30;;;;;;;24.22;56.50;101473.16;6308114;22;20030;-73
2021/09/05 16:48:40;;;;;;;16.25;7.40;;;;;;;24.26;56.08;101480.06;6306411;22;20081;-73
2021/09/05 16:51:26;;;;;;;22.00;7.88;;;;;;;24.37;56.16;101474.88;6307981;22;20018;-72
2021/09/05 16:54:12;;;;;;;14.77;7.15;;;;;;;24.02;56.91;101477.03;6309464;22;20007;-73
2021/09/05 16:56:58;;;;;;;18.20;7.07;;;;;;;24.36;56.04;101486.56;6312463;22;20072;-73
2021/09/05 16:59:43;;;;;;;18.92;7.85;;;;;;;24.02;57.09;101495.78;6308516;22;20007;-72
2021/09/05 17:02:29;;;;;;;19.00;7.05;;;;;;;23.71;58.41;101503.03;6307046;22;20014;-72
2021/09/05 17:05:15;;;;;;;19.35;7.32;;;;;;;23.96;58.21;101512.25;6307856;22;20026;-72
2021/09/05 17:08:01;;;;;;;14.10;6.88;;;;;;;23.57;59.39;101522.59;6307301;22;20010;-72
2021/09/05 17:10:46;;;;;;;18.45;7.22;;;;;;;23.50;60.27;101533.75;6307364;22;20430;-72
2021/09/05 17:13:32;;;;;;;15.10;7.78;;;;;;;23.60;59.91;101527.75;6307201;22;20402;-72
2021/09/05 17:16:18;;;;;;;14.38;7.38;;;;;;;23.56;60.10;101533.38;6307542;22;20007;-72
2021/09/05 17:19:03;;;;;;;13.10;7.40;;;;;;;23.42;60.77;101543.06;6307284;22;20474;-72
2021/09/05 17:21:49;;;;;;;19.50;7.15;;;;;;;23.68;60.26;101562.09;6307182;22;20035;-72
2021/09/05 17:24:35;;;;;;;17.20;6.80;;;;;;;23.38;61.30;101561.19;6307016;22;20332;-72
2021/09/05 17:27:21;;;;;;;17.15;6.75;;;;;;;23.29;61.90;101566.13;6307097;22;20025;-72
2021/09/05 17:30:08;;;;;;;15.13;6.63;;;;;;;23.39;61.87;101564.63;6307075;22;20035;-72
2021/09/05 17:32:53;;;;;;;14.38;6.80;;;;;;;23.13;63.49;101567.88;6307651;22;20034;-72
2021/09/05 17:35:39;;;;;;;17.35;6.63;;;;;;;22.89;64.67;101574.59;6308371;22;20313;-72
2021/09/05 17:38:25;;;;;;;16.23;6.80;;;;;;;22.93;65.59;101581.50;6308206;22;20086;-72
2021/09/05 17:41:11;;;;;;;14.63;6.80;;;;;;;22.86;65.81;101590.78;6306664;22;20490;-72
2021/09/05 17:43:57;;;;;;;15.93;6.75;;;;;;;22.76;66.91;101596.72;6307165;22;20003;-72
2021/09/05 17:46:43;;;;;;;22.65;6.72;;;;;;;22.90;66.67;101603.03;6307189;22;19999;-72
2021/09/05 17:49:29;;;;;;;14.30;6.97;;;;;;;22.58;67.75;101614.56;6306731;22;20003;-72
2021/09/05 17:52:15;;;;;;;15.38;6.53;;;;;;;22.66;67.57;101619.50;6308129;22;20018;-72
2021/09/05 17:55:01;;;;;;;13.60;6.78;;;;;;;22.43;69.41;101618.00;6307583;22;20074;-72
2021/09/05 17:57:46;;;;;;;14.48;7.00;;;;;;;22.51;69.35;101625.66;6309118;22;20045;-73
2021/09/05 18:00:33;;;;;;;16.50;7.25;;;;;;;22.30;69.97;101627.59;6309023;22;20003;-73
2021/09/05 18:03:19;;;;;;;12.82;6.65;;;;;;;22.30;70.27;101634.75;6308868;22;19999;-73
2021/09/05 18:06:04;;;;;;;14.05;7.00;;;;;;;22.38;69.65;101635.25;6309279;22;20045;-73
2021/09/05 18:08:50;;;;;;;13.77;6.43;;;;;;;22.46;69.24;101631.25;6309314;22;20003;-73
2021/09/05 18:11:36;;;;;;;13.35;6.65;;;;;;;22.18;70.14;101641.56;6308809;22;20030;-73
2021/09/05 18:14:22;;;;;;;14.52;7.35;;;;;;;22.43;68.21;101634.03;6309833;22;20045;-73
2021/09/05 18:17:07;;;;;;;14.35;6.75;;;;;;;22.12;70.28;101641.03;6309018;22;20007;-73
2021/09/05 18:19:53;;;;;;;12.02;7.05;;;;;;;22.03;71.12;101653.00;6307921;22;20018;-73
2021/09/05 18:22:39;;;;;;;15.27;7.03;;;;;;;22.41;68.83;101656.41;6308337;22;20385;-73
2021/09/05 18:25:25;;;;;;;14.45;7.18;;;;;;;22.39;67.95;101658.31;6308799;22;20302;-73
2021/09/05 18:28:10;;;;;;;11.07;6.80;;;;;;;21.85;70.71;101663.72;6308637;22;19999;-72
2021/09/05 18:30:56;;;;;;;13.85;6.80;;;;;;;22.11;68.58;101656.16;6308893;22;20007;-71
2021/09/05 18:33:42;;;;;;;9.52;6.72;;;;;;;21.94;70.58;101666.81;6308050;22;20117;-72
2021/09/05 18:36:28;;;;;;;11.75;6.63;;;;;;;21.84;70.38;101678.91;6308566;22;20003;-71
2021/09/05 18:39:14;;;;;;;12.57;7.15;;;;;;;22.23;69.08;101671.56;6308430;22;20020;-71
2021/09/05 18:41:59;;;;;;;11.13;7.32;;;;;;;21.78;70.71;101679.19;6308503;22;20046;-71
2021/09/05 18:44:45;;;;;;;14.20;7.18;;;;;;;21.93;70.11;101690.91;6309404;22;20011;-72
2021/09/05 18:47:31;;;;;;;12.52;7.30;;;;;;;21.86;70.70;101685.00;6308565;22;20038;-72
2021/09/05 18:50:17;;;;;;;10.52;6.97;;;;;;;21.89;69.54;101690.22;6309037;22;20425;-72
2021/09/05 18:53:03;;;;;;;9.43;7.00;;;;;;;21.72;70.60;101700.84;6308828;22;20072;-71
2021/09/05 18:55:49;;;;;;;11.70;7.50;;;;;;;21.61;71.10;101697.78;6307370;22;20018;-72
2021/09/05 18:58:35;;;;;;;17.65;7.25;;;;;;;21.56;71.68;101705.13;6308652;22;20045;-72
2021/09/05 19:01:21;;;;;;;14.30;7.63;;;;;;;21.70;70.30;101715.16;6307354;22;20148;-71
2021/09/05 19:04:07;;;;;;;16.80;7.32;;;;;;;21.82;70.55;101711.94;6309202;22;20018;-72
2021/09/05 19:06:53;;;;;;;13.13;7.63;;;;;;;21.60;71.31;101717.38;6308280;22;20007;-72
2021/09/05 19:09:39;;;;;;;11.65;7.68;;;;;;;21.97;69.58;101721.84;6308862;22;20082;-71
2021/09/05 19:12:24;;;;;;;13.05;7.65;;;;;;;21.36;73.97;101726.53;6307875;22;20071;-71
2021/09/05 19:15:11;;;;;;;12.95;7.72;;;;;;;21.12;76.50;101732.09;6308934;22;20007;-72
2021/09/05 19:17:57;;;;;;;12.77;6.90;;;;;;;21.39;75.53;101729.06;6308064;22;20068;-71
2021/09/05 19:20:42;;;;;;;12.07;7.22;;;;;;;21.63;73.70;101735.91;6309279;22;20007;-72
2021/09/05 19:23:28;;;;;;;16.88;8.52;;;;;;;21.55;74.21;101729.19;6308308;22;20008;-71
2021/09/05 19:26:14;;;;;;;9.73;7.25;;;;;;;21.52;74.74;101732.00;6308372;22;19999;-71
2021/09/05 19:29:00;;;;;;;14.02;7.57;;;;;;;21.67;74.72;101737.50;6307533;22;20007;-71
2021/09/05 19:31:46;;;;;;;12.55;7.60;;;;;;;21.22;77.31;101734.25;6308658;22;20003;-71
2021/09/05 19:34:32;;;;;;;13.02;7.72;;;;;;;21.08;79.64;101742.03;6309207;22;20003;-72
2021/09/05 19:37:18;;;;;;;10.43;7.40;;;;;;;21.09;81.32;101751.75;6308859;22;20007;-72
2021/09/05 19:40:04;;;;;;;12.43;7.57;;;;;;;20.90;82.05;101745.44;6308226;22;20011;-72
2021/09/05 19:42:50;;;;;;;11.43;7.88;;;;;;;20.92;83.26;101743.63;6308912;22;20013;-72
2021/09/05 19:45:36;;;;;;;12.25;7.32;;;;;;;21.04;82.53;101756.41;6309157;22;20033;-73
2021/09/05 19:48:23;;;;;;;9.93;7.38;;;;;;;21.09;83.37;101758.91;6308878;22;20413;-72
2021/09/05 19:51:09;;;;;;;13.90;7.30;;;;;;;21.49;80.16;101759.69;6308921;22;20082;-72
2021/09/05 19:53:54;;;;;;;12.02;7.65;;;;;;;21.54;80.42;101755.00;6309492;22;20140;-71
2021/09/05 19:56:40;;;;;;;14.23;7.55;;;;;;;21.07;84.56;101761.63;6285047;22;20313;-71
2021/09/05 19:59:26;;;;;;;14.30;7.38;;;;;;;20.76;86.69;101768.28;6308633;22;20043;-72
2021/09/05 20:02:13;;;;;;;11.68;7.95;;;;;;;20.74;87.37;101759.53;6311508;22;20017;-72
2021/09/05 20:04:58;;;;;;;17.20;8.18;;;;;;;20.71;87.34;101768.50;6309207;22;20094;-72
2021/09/05 20:07:44;;;;;;;12.43;7.35;;;;;;;20.79;86.46;101766.38;6308572;22;20070;-72
2021/09/05 20:10:30;;;;;;;12.68;7.53;;;;;;;20.60;89.48;101772.53;6308901;22;20521;-72
2021/09/05 20:13:16;;;;;;;15.45;8.10;;;;;;;20.57;90.09;101775.34;6308416;22;20014;-72
2021/09/05 20:16:01;;;;;;;11.65;7.75;;;;;;;21.01;85.99;101783.19;6308870;22;20006;-72
2021/09/05 20:18:47;;;;;;;12.98;7.63;;;;;;;20.93;86.59;101789.81;6286642;22;20011;-72
2021/09/05 20:21:33;;;;;;;13.25;7.82;;;;;;;20.82;87.20;101784.88;6287396;22;20003;-72
2021/09/05 20:24:19;;;;;;;12.25;8.05;;;;;;;20.57;88.48;101788.66;6308403;22;20014;-73
2021/09/05 20:27:05;;;;;;;12.15;7.65;;;;;;;20.71;88.05;101799.59;6287021;22;20010;-72
2021/09/05 20:29:50;;;;;;;10.48;7.63;;;;;;;20.04;93.78;101787.25;6308577;22;20076;-72
2021/09/05 20:32:37;;;;;;;12.18;7.60;;;;;;;20.22;92.37;101797.22;6287146;22;20080;-72
2021/09/05 20:35:23;;;;;;;10.00;6.95;;;;;;;20.38;91.62;101798.34;6306914;22;20390;-72
2021/09/05 20:38:09;;;;;;;9.93;7.05;;;;;;;20.55;90.29;101806.50;6286835;22;20428;-72
2021/09/05 20:40:55;;;;;;;13.32;6.97;;;;;;;20.26;91.43;101797.03;6286813;22;20045;-72
2021/09/05 20:43:41;;;;;;;10.55;7.10;;;;;;;20.12;92.69;101803.81;6307981;22;20072;-72
2021/09/05 20:46:26;;;;;;;11.82;7.50;;;;;;;20.39;91.63;101803.59;6309231;22;20013;-72
2021/09/05 20:49:12;;;;;;;12.07;7.82;;;;;;;20.33;92.78;101808.31;6308203;22;20011;-72
2021/09/05 20:52:01;;;;;;;10.20;7.18;;;;;;;20.00;95.92;101813.13;6308411;22;20406;-72
2021/09/05 20:54:47;;;;;;;11.45;7.40;;;;;;;20.36;94.00;101819.69;6309054;22;20003;-72
2021/09/05 20:57:36;;;;;;;12.98;7.60;;;;;;;20.10;96.66;101814.53;6307950;22;20349;-72
2021/09/05 21:00:23;;;;;;;12.98;7.30;;;;;;;20.03;98.86;101822.78;6307997;22;20406;-72
2021/09/05 21:03:09;;;;;;;14.02;7.72;;;;;;;20.18;99.45;101825.75;6286356;22;20006;-72
2021/09/05 21:05:55;;;;;;;17.00;7.82;;;;;;;20.02;100.00;101823.72;6307310;22;20018;-72
2021/09/05 21:08:40;;;;;;;13.13;7.43;;;;;;;19.71;100.00;101824.00;6296088;22;20003;-72
2021/09/05 21:11:27;;;;;;;13.13;7.35;;;;;;;19.72;100.00;101831.06;6308460;22;20432;-72
2021/09/05 21:14:13;;;;;;;14.35;7.22;;;;;;;20.09;98.03;101820.78;6309384;22;20019;-72
2021/09/05 21:16:59;;;;;;;9.65;6.40;;;;;;;20.04;97.18;101830.69;6307435;22;20306;-72
2021/09/05 21:19:45;;;;;;;11.18;6.30;;;;;;;20.24;95.44;101837.94;6306110;22;20007;-72
2021/09/05 21:22:31;;;;;;;10.70;6.85;;;;;;;19.87;95.07;101840.25;6308393;22;20085;-72
2021/09/05 21:25:17;;;;;;;9.60;6.63;;;;;;;19.43;99.52;101843.69;6286371;22;20040;-72
2021/09/05 21:28:03;;;;;;;12.27;6.57;;;;;;;19.65;96.71;101849.97;6285416;22;20074;-72
2021/09/05 21:30:48;;;;;;;10.02;6.43;;;;;;;19.37;99.06;101844.75;6287534;22;20010;-72
2021/09/05 21:33:34;;;;;;;11.88;6.32;;;;;;;19.31;99.00;101842.34;6310650;22;20064;-72
2021/09/05 21:36:20;;;;;;;9.63;6.45;;;;;;;19.25;98.70;101853.16;6310954;22;20003;-72
2021/09/05 21:39:06;;;;;;;10.52;6.25;;;;;;;19.17;99.78;101852.56;6310743;22;20148;-72
2021/09/05 21:41:52;;;;;;;10.80;6.05;;;;;;;19.20;100.00;101845.34;6310655;22;20015;-72
2021/09/05 21:44:37;;;;;;;9.13;6.03;;;;;;;19.20;99.42;101847.13;6288915;22;20117;-72
2021/09/05 21:47:23;;;;;;;8.32;5.70;;;;;;;19.37;97.80;101849.22;6310973;22;20107;-72
2021/09/05 21:50:09;;;;;;;12.23;6.43;;;;;;;19.55;96.55;101853.88;6309206;22;20003;-72
2021/09/05 21:52:55;;;;;;;10.00;6.18;;;;;;;19.02;99.76;101848.63;6310292;22;20007;-72
2021/09/05 21:55:41;;;;;;;11.50;5.95;;;;;;;19.33;98.26;101847.59;6287296;22;20007;-73
2021/09/05 21:58:26;;;;;;;16.30;6.43;;;;;;;19.21;97.36;101848.88;6309875;22;20045;-73
2021/09/05 22:01:12;;;;;;;8.48;5.40;;;;;;;18.70;99.63;101845.31;6287483;22;20035;-73
2021/09/05 22:03:58;;;;;;;9.98;5.57;;;;;;;18.81;98.72;101848.50;6310323;22;20497;-73
2021/09/05 22:06:44;;;;;;;8.38;5.25;;;;;;;18.71;100.00;101847.03;6287314;22;20046;-73
2021/09/05 22:09:30;;;;;;;6.97;5.32;;;;;;;18.65;100.00;101841.94;6310971;22;20014;-73
2021/09/05 22:12:16;;;;;;;11.57;5.55;;;;;;;18.69;100.00;101841.78;6308576;22;20283;-73
2021/09/05 22:15:03;;;;;;;7.97;5.07;;;;;;;19.12;99.03;101844.72;6288333;22;20030;-73
2021/09/05 22:17:48;;;;;;;6.30;4.90;;;;;;;19.07;100.00;101837.84;6308858;22;20003;-73
2021/09/05 22:20:34;;;;;;;7.55;4.72;;;;;;;18.94;100.00;101837.38;6310154;22;20010;-73
2021/09/05 22:23:20;;;;;;;12.77;4.70;;;;;;;18.39;100.00;101841.91;6309812;22;20037;-73
2021/09/05 22:26:06;;;;;;;10.50;4.45;;;;;;;18.65;100.00;101850.75;6309735;22;20011;-73
2021/09/05 22:28:51;;;;;;;10.52;5.18;;;;;;;18.81;100.00;101862.63;6309775;22;20037;-73
2021/09/05 22:31:37;;;;;;;8.75;4.78;;;;;;;18.38;100.00;101853.44;6309570;22;20007;-73
2021/09/05 22:34:23;;;;;;;9.68;4.55;;;;;;;18.55;100.00;101859.97;6308580;22;20082;-73
2021/09/05 22:37:09;;;;;;;9.88;4.70;;;;;;;18.32;100.00;101861.53;6309898;22;20014;-73
2021/09/05 22:39:55;;;;;;;9.63;4.85;;;;;;;18.20;100.00;101864.56;6289030;22;20255;-73
2021/09/05 22:42:45;;;;;;;9.18;4.90;;;;;;;18.29;100.00;101865.16;6311342;22;20017;-73
2021/09/05 22:45:30;;;;;;;5.45;4.47;;;;;;;18.30;98.62;101866.03;6310302;22;20003;-73
2021/09/05 22:48:17;;;;;;;9.10;4.70;;;;;;;18.31;96.88;101873.09;6310133;22;20018;-73
2021/09/05 22:51:04;;;;;;;7.60;4.50;;;;;;;18.20;96.24;101875.19;6310934;22;20060;-73
2021/09/05 22:53:50;;;;;;;6.57;4.45;;;;;;;18.31;94.88;101871.31;6309857;22;20052;-73
2021/09/05 22:56:36;;;;;;;7.70;4.60;;;;;;;18.19;93.61;101877.00;6309399;22;20008;-73
2021/09/05 22:59:21;;;;;;;8.30;4.78;;;;;;;18.41;91.60;101869.28;6309706;22;20069;-73
2021/09/05 23:02:07;;;;;;;11.25;5.28;;;;;;;18.24;91.88;101877.72;6310187;22;20068;-72
2021/09/05 23:04:53;;;;;;;9.82;5.95;;;;;;;18.42;89.44;101876.31;6309721;22;20086;-73
2021/09/05 23:07:39;;;;;;;15.32;6.53;;;;;;;18.49;89.43;101877.88;6309977;22;20010;-73
2021/09/05 23:10:25;;;;;;;17.80;6.10;;;;;;;18.47;87.24;101875.25;6309439;22;20018;-72
2021/09/05 23:13:11;;;;;;;13.55;6.30;;;;;;;18.53;87.51;101875.06;6309167;22;20006;-72
2021/09/05 23:15:56;;;;;;;12.55;5.63;;;;;;;18.23;87.64;101865.38;6309206;22;20011;-72
2021/09/05 23:18:42;;;;;;;10.88;5.43;;;;;;;18.75;84.51;101877.88;6309119;22;20015;-73
2021/09/05 23:21:28;;;;;;;13.52;4.65;;;;;;;18.69;81.94;101876.28;6309117;22;20018;-72
2021/09/05 23:24:13;;;;;;;9.00;4.10;;;;;;;18.30;84.81;101888.16;6285899;22;20084;-73
2021/09/05 23:26:59;;;;;;;7.78;4.50;;;;;;;18.56;83.38;101888.22;6309835;22;20066;-73
2021/09/05 23:29:45;;;;;;;7.93;4.10;;;;;;;18.32;86.36;101882.78;6310110;22;20007;-72
2021/09/05 23:32:31;;;;;;;9.18;3.67;;;;;;;18.87;81.39;101886.34;6309495;22;20377;-73
2021/09/05 23:35:17;;;;;;;6.68;3.90;;;;;;;19.12;77.91;101879.28;6309214;22;20086;-72
2021/09/05 23:38:02;;;;;;;6.45;3.70;;;;;;;18.83;77.43;101884.69;6307904;22;20007;-72
2021/09/05 23:40:48;;;;;;;6.53;3.80;;;;;;;18.95;77.95;101878.09;6308034;22;20019;-73
2021/09/05 23:43:34;;;;;;;6.82;3.65;;;;;;;18.65;78.65;101877.31;6308982;22;20078;-73
2021/09/05 23:46:19;;;;;;;9.05;3.78;;;;;;;18.47;79.30;101880.56;6309843;22;19996;-73
2021/09/05 23:49:05;;;;;;;6.80;3.80;;;;;;;18.63;77.89;101879.16;6309791;22;20007;-73
2021/09/05 23:51:51;;;;;;;10.15;3.67;;;;;;;18.73;76.29;101885.06;6309882;22;20086;-72
2021/09/05 23:54:40;;;;;;;10.63;3.58;;;;;;;18.86;74.78;101881.91;6308802;22;20014;-72
2021/09/05 23:57:26;;;;;;;7.07;3.67;;;;;;;18.58;75.68;101881.06;6287388;22;20310;-73
